Time;durP1;ratioP1;P1;durP2;ratioP2;P2;SDS_P1;SDS_P2;PMS_P1;PMS_P2;Temp;Humidity;BMP_temperature;BMP_pressure;BME280_temperature;BME280_humidity;BME280_pressure;Samples;Min_cycle;Max_cycle;Signal;HPM_P1;HPM_P2
2023/06/25 00:01:49;;;;;;;5.20;1.92;;;21.20;99.90;;;;;;5068546;28;20056;-60
2023/06/25 00:04:16;;;;;;;2.90;1.80;;;21.20;99.90;;;;;;5062077;28;20045;-60
2023/06/25 00:06:42;;;;;;;2.72;1.80;;;21.20;99.90;;;;;;5068376;28;20048;-60
2023/06/25 00:09:09;;;;;;;2.55;2.00;;;21.20;99.90;;;;;;5062696;28;20036;-59
2023/06/25 00:11:36;;;;;;;3.17;1.77;;;21.20;99.90;;;;;;5067863;28;20057;-60
2023/06/25 00:14:03;;;;;;;2.40;1.80;;;21.10;99.90;;;;;;5067814;28;20041;-60
2023/06/25 00:16:30;;;;;;;4.22;1.77;;;21.10;99.90;;;;;;5068009;28;20048;-60
2023/06/25 00:18:57;;;;;;;3.38;1.67;;;21.10;99.90;;;;;;5065048;28;20411;-60
2023/06/25 00:21:24;;;;;;;3.08;1.65;;;21.00;99.90;;;;;;5050017;28;20044;-59
2023/06/25 00:23:50;;;;;;;2.35;1.90;;;21.00;99.90;;;;;;5070277;28;20052;-60
2023/06/25 00:26:17;;;;;;;4.05;1.77;;;20.90;99.90;;;;;;5069429;28;20053;-59
2023/06/25 00:28:44;;;;;;;3.65;1.65;;;20.90;99.90;;;;;;5070384;28;20251;-60
2023/06/25 00:31:14;;;;;;;2.85;1.58;;;20.80;99.90;;;;;;5069605;28;20587;-60
2023/06/25 00:33:41;;;;;;;3.70;1.70;;;20.80;99.90;;;;;;5069739;28;20075;-60
2023/06/25 00:36:08;;;;;;;3.30;1.98;;;20.80;99.90;;;;;;5052211;28;20238;-60
2023/06/25 00:38:37;;;;;;;4.00;2.17;;;20.70;99.90;;;;;;5070336;28;20075;-60
2023/06/25 00:41:08;;;;;;;2.58;1.63;;;20.70;99.90;;;;;;5069845;28;20391;-59
2023/06/25 00:43:40;;;;;;;7.28;1.60;;;20.70;99.90;;;;;;5070363;28;20052;-60
2023/06/25 00:46:15;;;;;;;4.53;1.95;;;20.70;99.90;;;;;;5066958;28;20044;-59
2023/06/25 00:48:45;;;;;;;2.85;1.80;;;20.70;99.90;;;;;;5070495;28;20045;-60
2023/06/25 00:51:17;;;;;;;2.40;1.83;;;20.60;99.90;;;;;;5071081;28;20068;-60
2023/06/25 00:53:43;;;;;;;4.25;1.70;;;20.60;99.90;;;;;;5054019;28;20040;-60
2023/06/25 00:56:11;;;;;;;2.40;1.90;;;20.60;99.90;;;;;;5053656;28;20044;-60
2023/06/25 00:58:39;;;;;;;2.30;1.77;;;20.50;99.90;;;;;;5071502;28;20076;-60
2023/06/25 01:01:17;;;;;;;2.08;1.50;;;20.50;99.90;;;;;;5071186;28;20131;-60
2023/06/25 01:03:54;;;;;;;3.03;1.98;;;20.50;99.90;;;;;;5053833;28;20045;-60
2023/06/25 01:06:29;;;;;;;2.08;1.58;;;20.40;99.90;;;;;;5071037;28;20280;-60
2023/06/25 01:08:59;;;;;;;2.22;1.55;;;20.40;99.90;;;;;;5054332;28;20066;-60
2023/06/25 01:11:29;;;;;;;3.30;1.70;;;20.40;99.90;;;;;;5070628;28;20522;-61
2023/06/25 01:13:56;;;;;;;1.83;1.63;;;20.40;99.90;;;;;;5071296;28;20052;-59
2023/06/25 01:16:23;;;;;;;3.28;1.80;;;20.40;99.90;;;;;;5070828;28;20052;-60
2023/06/25 01:18:50;;;;;;;2.80;1.58;;;20.30;99.90;;;;;;5053385;28;20060;-60
2023/06/25 01:21:30;;;;;;;4.25;2.10;;;20.20;99.90;;;;;;5070894;28;20060;-59
2023/06/25 01:23:57;;;;;;;2.75;1.67;;;20.20;99.90;;;;;;5071011;28;20084;-59
2023/06/25 01:26:24;;;;;;;4.32;2.20;;;20.20;99.90;;;;;;5070617;28;20082;-60
2023/06/25 01:28:55;;;;;;;2.15;1.60;;;20.20;99.90;;;;;;5058688;28;20064;-60
2023/06/25 01:31:25;;;;;;;1.98;1.38;;;20.20;99.90;;;;;;5069602;28;20102;-60
2023/06/25 01:33:53;;;;;;;4.97;1.98;;;20.10;99.90;;;;;;5069931;28;20044;-60
2023/06/25 01:36:19;;;;;;;2.60;1.83;;;20.10;99.90;;;;;;5069181;28;20461;-60
2023/06/25 01:38:46;;;;;;;3.75;1.95;;;20.00;99.90;;;;;;5070879;28;20051;-60
2023/06/25 01:41:13;;;;;;;2.60;1.92;;;20.00;99.90;;;;;;5053135;28;20503;-60
2023/06/25 01:43:41;;;;;;;3.90;1.88;;;19.90;99.90;;;;;;5070509;28;20087;-60
2023/06/25 01:46:08;;;;;;;3.03;1.50;;;19.90;99.90;;;;;;5070933;28;20059;-61
2023/06/25 01:48:35;;;;;;;4.65;1.77;;;19.80;99.90;;;;;;5070725;28;20051;-60
2023/06/25 01:51:01;;;;;;;2.35;1.80;;;19.80;99.90;;;;;;5052990;28;20563;-60
2023/06/25 01:53:28;;;;;;;2.20;1.55;;;19.80;99.90;;;;;;5070563;28;20113;-59
2023/06/25 01:55:55;;;;;;;2.67;1.73;;;19.70;99.90;;;;;;5058169;28;20048;-60
2023/06/25 01:58:22;;;;;;;2.58;1.65;;;19.70;99.90;;;;;;4710395;28;10000665;-60
2023/06/25 02:00:49;;;;;;;2.03;1.27;;;19.60;99.90;;;;;;5069704;28;20058;-60
2023/06/25 02:03:16;;;;;;;3.03;2.00;;;19.70;99.90;;;;;;5050862;28;20043;-60
2023/06/25 02:05:43;;;;;;;3.58;1.40;;;19.60;99.90;;;;;;5069470;28;20062;-60
2023/06/25 02:08:10;;;;;;;2.42;1.75;;;19.60;99.90;;;;;;5069120;28;20051;-60
2023/06/25 02:10:36;;;;;;;3.17;1.83;;;19.60;99.90;;;;;;5068105;28;20052;-60
2023/06/25 02:13:03;;;;;;;4.78;1.45;;;19.50;99.90;;;;;;5069700;28;20051;-61
2023/06/25 02:15:31;;;;;;;2.85;1.67;;;19.50;99.90;;;;;;5075398;28;20053;-60
2023/06/25 02:17:57;;;;;;;1.80;1.40;;;19.50;99.90;;;;;;5069153;28;20486;-60
2023/06/25 02:20:24;;;;;;;1.55;1.30;;;19.40;99.90;;;;;;5062911;28;20040;-60
2023/06/25 02:22:51;;;;;;;2.20;1.42;;;19.40;99.90;;;;;;5068130;28;20060;-60
2023/06/25 02:25:18;;;;;;;3.42;1.60;;;19.40;99.90;;;;;;5066663;28;20131;-61
2023/06/25 02:27:45;;;;;;;2.22;1.50;;;19.40;99.90;;;;;;5069041;28;20053;-60
2023/06/25 02:30:12;;;;;;;2.72;1.83;;;19.40;99.90;;;;;;5067841;28;20470;-60
2023/06/25 02:32:39;;;;;;;4.68;1.90;;;19.30;99.90;;;;;;5051145;28;20414;-59
2023/06/25 02:35:08;;;;;;;2.03;1.42;;;19.40;99.90;;;;;;5068663;28;20045;-60
2023/06/25 02:37:35;;;;;;;1.98;1.30;;;19.30;99.90;;;;;;5049240;28;20099;-60
2023/06/25 02:40:02;;;;;;;1.60;1.30;;;19.30;99.90;;;;;;5046171;28;20044;-59
2023/06/25 02:42:29;;;;;;;1.92;1.63;;;19.30;99.90;;;;;;5069409;28;20055;-60
2023/06/25 02:44:56;;;;;;;1.83;1.50;;;19.30;99.90;;;;;;5069472;28;20422;-59
2023/06/25 02:47:22;;;;;;;3.50;1.20;;;19.30;99.90;;;;;;5068336;28;20048;-60
2023/06/25 02:49:49;;;;;;;1.67;1.10;;;19.30;99.90;;;;;;5068776;28;20048;-59
2023/06/25 02:52:16;;;;;;;1.75;1.23;;;19.30;99.90;;;;;;5068909;28;20049;-59
2023/06/25 02:54:43;;;;;;;2.60;1.42;;;19.30;99.90;;;;;;5067362;28;20048;-59
2023/06/25 02:57:10;;;;;;;1.13;1.02;;;19.30;99.90;;;;;;5050706;28;20125;-60
2023/06/25 02:59:36;;;;;;;2.17;1.50;;;19.30;99.90;;;;;;5070057;28;20329;-59
2023/06/25 03:02:03;;;;;;;2.83;1.40;;;19.30;99.90;;;;;;5068928;28;20102;-59
2023/06/25 03:04:30;;;;;;;2.03;1.45;;;19.30;99.90;;;;;;5065564;28;20323;-59
2023/06/25 03:06:57;;;;;;;1.88;1.25;;;19.30;99.90;;;;;;5068267;28;20450;-59
2023/06/25 03:09:24;;;;;;;1.42;1.08;;;19.40;99.90;;;;;;5051901;28;20049;-59
2023/06/25 03:11:50;;;;;;;1.13;0.90;;;19.40;99.90;;;;;;5050937;28;20056;-59
2023/06/25 03:14:17;;;;;;;2.65;1.30;;;19.40;99.90;;;;;;5069799;28;20049;-59
2023/06/25 03:17:00;;;;;;;6.97;1.60;;;19.40;99.90;;;;;;5065735;28;20083;-59
2023/06/25 03:19:27;;;;;;;1.50;1.00;;;19.40;99.90;;;;;;5067413;28;20045;-58
2023/06/25 03:21:53;;;;;;;1.83;1.00;;;19.40;99.90;;;;;;5067329;28;20052;-59
2023/06/25 03:24:20;;;;;;;1.83;1.23;;;19.40;99.90;;;;;;5065717;28;20419;-59
2023/06/25 03:26:47;;;;;;;1.92;1.17;;;19.40;99.90;;;;;;5067547;28;20056;-59
2023/06/25 03:29:14;;;;;;;1.90;1.40;;;19.40;99.90;;;;;;5050869;28;20457;-60
2023/06/25 03:31:41;;;;;;;4.13;1.65;;;19.40;99.90;;;;;;5062196;28;20090;-59
2023/06/25 03:34:07;;;;;;;3.80;1.40;;;19.40;99.90;;;;;;5052868;28;20110;-59
2023/06/25 03:36:34;;;;;;;2.20;1.42;;;19.40;99.90;;;;;;5066357;28;20052;-59
2023/06/25 03:39:01;;;;;;;1.65;1.10;;;19.40;99.90;;;;;;5068208;28;20070;-59
2023/06/25 03:41:29;;;;;;;4.00;1.55;;;19.40;99.90;;;;;;5076392;28;20057;-59
2023/06/25 03:43:56;;;;;;;1.95;1.60;;;19.40;99.90;;;;;;5068347;28;20047;-60
2023/06/25 03:46:22;;;;;;;2.63;1.38;;;19.40;99.90;;;;;;5067367;28;20064;-59
2023/06/25 03:48:49;;;;;;;3.75;1.60;;;19.30;99.90;;;;;;5067537;28;20528;-59
2023/06/25 03:51:16;;;;;;;2.58;1.63;;;19.40;99.90;;;;;;5078717;28;20045;-59
2023/06/25 03:53:43;;;;;;;3.50;1.80;;;19.40;99.90;;;;;;5065546;28;20142;-58
2023/06/25 03:56:10;;;;;;;2.72;1.90;;;19.50;99.90;;;;;;5066031;28;20040;-60
2023/06/25 03:58:37;;;;;;;2.22;1.75;;;19.50;99.90;;;;;;5067462;28;20091;-59
2023/06/25 04:01:03;;;;;;;4.65;2.22;;;19.50;99.90;;;;;;5065255;28;20036;-58
2023/06/25 04:03:30;;;;;;;7.07;2.63;;;19.50;99.90;;;;;;5049100;28;20045;-59
2023/06/25 04:05:57;;;;;;;2.80;2.22;;;19.60;99.90;;;;;;5064866;28;20056;-60
2023/06/25 04:08:24;;;;;;;3.45;2.35;;;19.60;99.90;;;;;;5067224;28;20054;-59
2023/06/25 04:10:51;;;;;;;5.63;2.88;;;19.60;99.90;;;;;;5078735;28;20040;-60
2023/06/25 04:13:18;;;;;;;6.88;2.50;;;19.70;99.90;;;;;;5071621;28;20048;-59
2023/06/25 04:15:44;;;;;;;4.88;2.78;;;19.70;99.90;;;;;;5061695;28;20052;-60
2023/06/25 04:18:11;;;;;;;5.50;3.20;;;19.70;99.90;;;;;;5067030;28;20051;-60
2023/06/25 04:20:38;;;;;;;4.35;2.95;;;19.70;99.90;;;;;;5067511;28;20044;-60
2023/06/25 04:23:05;;;;;;;4.03;3.13;;;19.80;99.90;;;;;;5067159;28;20052;-60
2023/06/25 04:25:32;;;;;;;8.90;3.13;;;19.80;99.90;;;;;;5075002;28;20040;-60
2023/06/25 04:27:59;;;;;;;4.35;3.05;;;19.90;99.90;;;;;;5077957;28;20086;-61
2023/06/25 04:30:26;;;;;;;8.93;3.40;;;19.90;99.90;;;;;;5073830;28;20071;-60
2023/06/25 04:32:54;;;;;;;5.90;3.35;;;20.00;99.90;;;;;;5076157;28;20059;-60
2023/06/25 04:35:21;;;;;;;3.72;2.88;;;20.00;99.90;;;;;;5066698;28;20041;-61
2023/06/25 04:37:48;;;;;;;6.05;3.55;;;20.00;99.90;;;;;;5067105;28;20059;-59
2023/06/25 04:40:15;;;;;;;4.22;3.35;;;20.00;99.90;;;;;;5071319;28;20123;-60
2023/06/25 04:42:42;;;;;;;6.60;3.53;;;20.00;99.90;;;;;;5084203;28;20501;-59
2023/06/25 04:45:09;;;;;;;7.65;3.50;;;20.00;99.90;;;;;;5067255;28;20049;-59
2023/06/25 04:47:36;;;;;;;4.35;3.05;;;20.00;99.90;;;;;;5066862;28;20051;-59
2023/06/25 04:50:03;;;;;;;6.70;3.78;;;20.10;99.90;;;;;;5067714;28;20044;-58
2023/06/25 04:52:30;;;;;;;4.82;3.40;;;20.10;99.90;;;;;;5076545;28;20090;-59
2023/06/25 04:54:56;;;;;;;9.07;3.80;;;20.20;99.90;;;;;;5067978;28;20049;-59
2023/06/25 04:57:23;;;;;;;5.32;3.60;;;20.20;99.90;;;;;;5087673;28;20075;-59
2023/06/25 04:59:50;;;;;;;5.45;3.35;;;20.30;99.90;;;;;;5070973;28;20048;-60
2023/06/25 05:02:17;;;;;;;5.32;3.17;;;20.30;99.90;;;;;;5066748;28;20457;-59
2023/06/25 05:04:44;;;;;;;5.03;3.03;;;20.30;99.90;;;;;;5048699;28;20044;-59
2023/06/25 05:07:12;;;;;;;5.28;2.95;;;20.40;99.90;;;;;;5068509;28;20059;-60
2023/06/25 05:09:39;;;;;;;5.05;3.50;;;20.50;99.90;;;;;;5070532;28;20040;-60
2023/06/25 05:12:06;;;;;;;3.33;2.70;;;20.50;99.90;;;;;;5068761;28;20061;-61
2023/06/25 05:14:33;;;;;;;3.45;2.92;;;20.50;99.90;;;;;;5069725;28;20253;-60
2023/06/25 05:17:00;;;;;;;7.40;3.47;;;20.60;99.90;;;;;;5042108;28;20304;-61
2023/06/25 05:19:27;;;;;;;9.48;3.75;;;20.60;99.90;;;;;;5063972;28;20044;-60
2023/06/25 05:21:54;;;;;;;3.72;3.17;;;20.60;99.90;;;;;;5074656;28;20052;-60
2023/06/25 05:24:21;;;;;;;7.53;2.90;;;20.70;99.90;;;;;;5069904;28;20048;-60
2023/06/25 05:26:47;;;;;;;7.65;2.58;;;20.80;99.90;;;;;;5069321;28;20101;-60
2023/06/25 05:29:14;;;;;;;5.32;2.42;;;20.80;99.90;;;;;;5054783;28;20148;-60
2023/06/25 05:31:41;;;;;;;6.55;2.90;;;20.90;99.90;;;;;;5069042;28;20182;-59
2023/06/25 05:34:08;;;;;;;4.40;3.00;;;20.90;99.90;;;;;;5058679;28;20045;-60
2023/06/25 05:36:35;;;;;;;4.20;2.78;;;21.00;99.90;;;;;;5069380;28;20052;-60
2023/06/25 05:39:02;;;;;;;5.30;2.80;;;21.00;99.90;;;;;;5070087;28;20090;-60
2023/06/25 05:41:28;;;;;;;3.30;2.42;;;21.10;99.90;;;;;;5068187;28;20055;-60
2023/06/25 05:43:55;;;;;;;6.85;2.67;;;21.10;99.90;;;;;;5070457;28;20092;-61
2023/06/25 05:46:22;;;;;;;5.35;3.47;;;21.20;99.90;;;;;;5079607;28;20044;-59
2023/06/25 05:48:49;;;;;;;5.82;2.53;;;21.20;99.90;;;;;;5069941;28;20044;-59
2023/06/25 05:51:15;;;;;;;3.90;2.70;;;21.30;99.90;;;;;;5069563;28;20521;-61
2023/06/25 05:53:43;;;;;;;4.47;3.30;;;21.30;99.90;;;;;;5069682;28;20071;-59
2023/06/25 05:56:11;;;;;;;4.55;2.50;;;21.40;99.90;;;;;;5046764;28;20045;-59
2023/06/25 05:58:42;;;;;;;4.03;2.70;;;21.40;99.90;;;;;;5065215;28;20083;-60
2023/06/25 06:01:09;;;;;;;3.88;2.40;;;21.50;99.90;;;;;;5069302;28;20114;-58
2023/06/25 06:03:36;;;;;;;13.23;3.33;;;21.50;99.90;;;;;;5069339;28;20047;-59
2023/06/25 06:06:03;;;;;;;4.95;2.50;;;21.60;99.90;;;;;;5068933;28;20128;-59
2023/06/25 06:08:29;;;;;;;4.28;3.00;;;21.60;99.90;;;;;;5068665;28;20060;-59
2023/06/25 06:10:56;;;;;;;4.72;2.83;;;21.70;99.90;;;;;;5066553;28;20044;-59
2023/06/25 06:13:23;;;;;;;4.45;3.05;;;21.80;99.90;;;;;;5066602;28;20044;-59
2023/06/25 06:15:50;;;;;;;5.97;2.85;;;21.80;99.90;;;;;;5069151;28;20055;-60
2023/06/25 06:18:17;;;;;;;3.88;2.97;;;21.90;99.90;;;;;;5060903;28;20106;-60
2023/06/25 06:20:44;;;;;;;4.68;2.95;;;21.90;99.90;;;;;;5062340;28;20052;-60
2023/06/25 06:23:11;;;;;;;4.30;2.88;;;22.00;99.90;;;;;;5068915;28;20148;-60
2023/06/25 06:25:38;;;;;;;3.60;2.50;;;22.10;99.90;;;;;;5070682;28;20131;-59
2023/06/25 06:28:05;;;;;;;3.58;2.72;;;22.10;99.90;;;;;;5070132;28;20045;-59
2023/06/25 06:30:32;;;;;;;4.90;2.78;;;22.20;99.90;;;;;;5063662;28;20098;-60
2023/06/25 06:32:58;;;;;;;5.22;2.67;;;22.30;99.90;;;;;;5064716;28;20076;-59
2023/06/25 06:35:25;;;;;;;5.57;3.42;;;22.30;99.90;;;;;;5066365;28;20044;-59
2023/06/25 06:37:52;;;;;;;5.10;3.00;;;22.40;99.90;;;;;;5060223;28;20385;-60
2023/06/25 06:40:19;;;;;;;4.25;3.22;;;22.40;99.90;;;;;;5048581;28;20075;-59
2023/06/25 06:42:46;;;;;;;6.07;2.67;;;22.50;99.90;;;;;;5066949;28;20040;-59
2023/06/25 06:45:13;;;;;;;3.35;2.33;;;22.60;99.90;;;;;;5068666;28;20201;-59
2023/06/25 06:47:40;;;;;;;5.22;2.83;;;22.60;99.90;;;;;;5067511;28;20041;-59
2023/06/25 06:50:07;;;;;;;6.93;3.63;;;22.70;99.90;;;;;;5060743;28;20138;-59
2023/06/25 06:52:34;;;;;;;3.92;2.97;;;22.70;99.90;;;;;;5063508;28;20056;-60
2023/06/25 06:55:01;;;;;;;5.10;3.45;;;22.80;99.90;;;;;;5063367;28;20561;-60
2023/06/25 06:57:28;;;;;;;4.57;3.03;;;22.80;99.90;;;;;;5056556;28;20052;-59
2023/06/25 06:59:54;;;;;;;4.38;3.45;;;22.90;99.90;;;;;;5067443;28;20063;-59
2023/06/25 07:02:21;;;;;;;7.65;2.78;;;22.90;99.90;;;;;;5073515;28;20105;-59
2023/06/25 07:04:48;;;;;;;3.88;2.47;;;23.00;99.90;;;;;;5059082;28;20049;-58
2023/06/25 07:07:15;;;;;;;4.55;2.72;;;23.00;99.90;;;;;;5064111;28;20053;-59
2023/06/25 07:09:52;;;;;;;4.07;2.92;;;23.00;99.90;;;;;;5067770;28;20407;-58
2023/06/25 07:12:18;;;;;;;6.13;3.72;;;23.10;99.90;;;;;;5042785;28;20045;-58
2023/06/25 07:14:45;;;;;;;6.00;2.83;;;23.10;99.90;;;;;;5063493;28;20067;-59
2023/06/25 07:17:12;;;;;;;5.85;3.10;;;23.20;99.90;;;;;;5058918;28;20444;-60
2023/06/25 07:19:39;;;;;;;4.28;3.30;;;23.30;99.90;;;;;;5059576;28;20295;-60
2023/06/25 07:22:06;;;;;;;4.50;3.10;;;23.30;99.90;;;;;;4711268;28;10000275;-61
2023/06/25 07:24:32;;;;;;;6.82;3.20;;;23.40;99.90;;;;;;5063661;28;20056;-60
2023/06/25 07:27:00;;;;;;;4.65;3.00;;;23.40;99.90;;;;;;5065168;28;20415;-60
2023/06/25 07:29:28;;;;;;;6.43;2.95;;;23.40;99.90;;;;;;5064475;28;20127;-61
2023/06/25 07:31:54;;;;;;;10.57;3.13;;;23.50;99.90;;;;;;5069004;28;20105;-60
2023/06/25 07:34:22;;;;;;;4.30;2.97;;;23.60;99.90;;;;;;5073036;28;20102;-60
2023/06/25 07:36:49;;;;;;;4.15;2.90;;;23.60;99.90;;;;;;5065380;28;20479;-60
2023/06/25 07:39:26;;;;;;;5.28;3.25;;;23.60;99.90;;;;;;5075323;28;20045;-60
2023/06/25 07:41:53;;;;;;;7.43;3.83;;;23.70;99.90;;;;;;5053895;28;20063;-60
2023/06/25 07:44:21;;;;;;;10.35;3.40;;;23.70;99.90;;;;;;5076251;28;20071;-60
2023/06/25 07:47:08;;;;;;;4.03;3.20;;;23.70;99.90;;;;;;5064129;28;20132;-60
2023/06/25 07:49:35;;;;;;;6.32;3.40;;;23.80;99.90;;;;;;5064463;28;20466;-60
2023/06/25 07:52:03;;;;;;;6.70;3.22;;;23.80;99.90;;;;;;5072198;28;20051;-61
2023/06/25 07:54:30;;;;;;;7.75;3.58;;;23.80;99.90;;;;;;5066658;28;20044;-60
2023/06/25 07:56:57;;;;;;;4.97;3.50;;;23.90;99.90;;;;;;5064105;28;20045;-60
2023/06/25 07:59:23;;;;;;;3.90;2.80;;;23.90;99.90;;;;;;5063982;28;20607;-60
2023/06/25 08:01:58;;;;;;;4.40;2.92;;;23.90;99.90;;;;;;5064402;28;20056;-60
2023/06/25 08:04:25;;;;;;;5.97;2.97;;;23.90;99.90;;;;;;5064507;28;20132;-60
2023/06/25 08:06:52;;;;;;;6.03;3.40;;;24.00;99.90;;;;;;5064443;28;20044;-60
2023/06/25 08:09:19;;;;;;;3.97;3.08;;;24.00;99.90;;;;;;5064494;28;20606;-60
2023/06/25 08:11:46;;;;;;;7.85;3.53;;;24.10;99.90;;;;;;5065945;28;20048;-60
2023/06/25 08:14:13;;;;;;;4.85;3.17;;;24.10;99.90;;;;;;5064942;28;20338;-60
2023/06/25 08:16:39;;;;;;;4.90;2.60;;;24.20;99.90;;;;;;5064525;28;20501;-59
2023/06/25 08:19:06;;;;;;;4.25;3.15;;;24.20;99.90;;;;;;5064792;28;20057;-59
2023/06/25 08:21:33;;;;;;;3.72;2.97;;;24.40;99.90;;;;;;5063067;28;20110;-60
2023/06/25 08:24:00;;;;;;;11.90;3.65;;;24.40;99.90;;;;;;5055184;28;20071;-59
2023/06/25 08:26:27;;;;;;;4.38;2.65;;;24.40;99.90;;;;;;5058162;28;20045;-60
2023/06/25 08:28:56;;;;;;;4.88;3.65;;;24.50;99.90;;;;;;5064277;28;20084;-60
2023/06/25 08:31:23;;;;;;;10.13;4.45;;;24.60;99.90;;;;;;5064833;28;20044;-60
2023/06/25 08:33:50;;;;;;;7.90;3.65;;;24.70;99.90;;;;;;5068605;28;20063;-60
2023/06/25 08:36:17;;;;;;;7.32;3.20;;;24.80;99.90;;;;;;5064436;28;20095;-59
2023/06/25 08:38:44;;;;;;;5.43;3.38;;;24.90;99.90;;;;;;5045029;28;20052;-60
2023/06/25 08:41:10;;;;;;;4.90;3.33;;;24.90;99.90;;;;;;5064577;28;20048;-59
2023/06/25 08:43:37;;;;;;;5.95;3.90;;;25.00;99.90;;;;;;5075029;28;20052;-60
2023/06/25 08:46:04;;;;;;;10.90;3.92;;;25.00;99.90;;;;;;5068069;28;20048;-60
2023/06/25 08:48:31;;;;;;;4.72;3.80;;;25.10;99.90;;;;;;5034233;28;20284;-60
2023/06/25 08:51:05;;;;;;;6.38;4.15;;;25.10;99.90;;;;;;5031850;28;20045;-59
2023/06/25 08:53:32;;;;;;;5.20;3.17;;;25.10;99.90;;;;;;5067262;28;20109;-61
2023/06/25 08:56:00;;;;;;;4.22;3.35;;;25.10;99.90;;;;;;5041327;28;20106;-59
2023/06/25 08:58:28;;;;;;;4.38;3.20;;;25.20;99.90;;;;;;5051607;28;20489;-59
2023/06/25 09:00:55;;;;;;;6.60;3.92;;;25.30;99.90;;;;;;5064655;28;20047;-60
2023/06/25 09:03:22;;;;;;;3.88;2.90;;;25.40;99.90;;;;;;5066563;28;20097;-61
2023/06/25 09:05:53;;;;;;;4.75;3.55;;;25.50;99.90;;;;;;5068096;28;20048;-60
2023/06/25 09:08:23;;;;;;;4.97;3.35;;;25.60;99.40;;;;;;5067040;28;20059;-61
2023/06/25 09:10:54;;;;;;;4.22;3.53;;;25.70;99.90;;;;;;5067208;28;20102;-60
2023/06/25 09:13:24;;;;;;;4.88;3.20;;;25.80;99.30;;;;;;5066735;28;20056;-61
2023/06/25 09:15:53;;;;;;;5.75;3.50;;;25.80;99.40;;;;;;5062673;28;20064;-62
2023/06/25 09:18:21;;;;;;;9.20;3.80;;;25.90;99.50;;;;;;5066891;28;20052;-60
2023/06/25 09:20:48;;;;;;;4.00;2.97;;;26.00;99.50;;;;;;5048878;28;20048;-61
2023/06/25 09:23:21;;;;;;;4.72;3.28;;;26.00;99.60;;;;;;5065958;28;20079;-60
2023/06/25 09:25:49;;;;;;;7.85;3.08;;;26.10;99.60;;;;;;5067857;28;20044;-60
2023/06/25 09:28:15;;;;;;;4.05;3.10;;;26.20;99.40;;;;;;5068424;28;20049;-61
2023/06/25 09:30:42;;;;;;;5.03;3.35;;;26.30;99.20;;;;;;5065724;28;20049;-59
2023/06/25 09:33:10;;;;;;;10.25;3.42;;;26.40;99.00;;;;;;5064406;28;20423;-62
2023/06/25 09:35:37;;;;;;;5.75;3.25;;;26.50;98.80;;;;;;5067118;28;20139;-60
2023/06/25 09:38:04;;;;;;;7.35;3.15;;;26.50;98.50;;;;;;5061242;28;20550;-60
2023/06/25 09:40:31;;;;;;;5.55;2.75;;;26.50;98.50;;;;;;5057180;28;20109;-59
2023/06/25 09:42:58;;;;;;;8.25;2.60;;;26.60;98.30;;;;;;5070958;28;20400;-59
2023/06/25 09:45:26;;;;;;;4.43;3.33;;;26.60;98.20;;;;;;5065963;28;20061;-61
2023/06/25 09:47:55;;;;;;;5.38;3.65;;;26.70;98.10;;;;;;5062424;28;20064;-60
2023/06/25 09:50:42;;;;;;;5.47;3.47;;;26.80;97.80;;;;;;5045015;28;20147;-60
2023/06/25 09:53:18;;;;;;;5.93;3.00;;;26.90;97.20;;;;;;5040915;28;20051;-61
2023/06/25 09:55:44;;;;;;;5.70;3.33;;;27.00;97.30;;;;;;5051894;28;20052;-61
2023/06/25 09:58:12;;;;;;;4.57;3.08;;;27.10;97.40;;;;;;5041671;28;20048;-61
2023/06/25 10:00:38;;;;;;;4.28;3.08;;;27.20;97.20;;;;;;5045922;28;20773;-61
2023/06/25 10:03:05;;;;;;;4.30;3.10;;;27.30;97.00;;;;;;5059040;28;20048;-61
2023/06/25 10:05:32;;;;;;;4.18;3.42;;;27.40;96.90;;;;;;5044376;28;20057;-61
2023/06/25 10:07:59;;;;;;;6.32;3.63;;;27.40;96.60;;;;;;5042717;28;20059;-61
2023/06/25 10:10:27;;;;;;;5.55;2.88;;;27.50;96.20;;;;;;5062070;28;20044;-62
2023/06/25 10:12:54;;;;;;;6.47;3.20;;;27.70;95.90;;;;;;5062060;28;20052;-61
2023/06/25 10:15:27;;;;;;;4.72;3.53;;;27.90;95.90;;;;;;5044759;28;20514;-62
2023/06/25 10:17:57;;;;;;;3.10;2.72;;;28.30;94.60;;;;;;5064477;28;20126;-62
2023/06/25 10:20:28;;;;;;;10.32;2.83;;;28.60;94.80;;;;;;5070065;28;20696;-62
2023/06/25 10:23:25;;;;;;;6.07;3.13;;;28.90;93.70;;;;;;5063271;28;20059;-62
2023/06/25 10:25:58;;;;;;;5.70;3.08;;;29.00;93.20;;;;;;5064832;28;20052;-61
2023/06/25 10:28:34;;;;;;;5.22;3.75;;;29.30;93.60;;;;;;5071690;28;20087;-62
2023/06/25 10:31:21;;;;;;;8.27;4.00;;;29.70;93.00;;;;;;5057637;28;20052;-61
2023/06/25 10:33:49;;;;;;;4.53;3.30;;;30.00;91.90;;;;;;5064304;28;20057;-61
2023/06/25 10:36:22;;;;;;;4.05;3.58;;;30.10;92.90;;;;;;5065304;28;20044;-60
2023/06/25 10:38:49;;;;;;;4.43;2.95;;;30.30;92.60;;;;;;5065738;28;20057;-62
2023/06/25 10:41:24;;;;;;;6.68;2.70;;;30.30;92.40;;;;;;5065066;28;20407;-62
2023/06/25 10:43:51;;;;;;;4.10;2.90;;;30.50;91.80;;;;;;5047798;28;20063;-62
2023/06/25 10:46:18;;;;;;;5.97;3.05;;;30.70;92.00;;;;;;5064872;28;20620;-62
2023/06/25 10:48:45;;;;;;;6.35;2.90;;;30.90;91.30;;;;;;5047345;28;20396;-62
2023/06/25 10:51:12;;;;;;;3.78;3.15;;;31.10;91.00;;;;;;5065206;28;20052;-63
2023/06/25 10:53:41;;;;;;;6.03;3.15;;;31.10;90.70;;;;;;5057212;28;20059;-62
2023/06/25 10:56:07;;;;;;;4.75;3.13;;;31.10;90.40;;;;;;5038324;28;20048;-62
2023/06/25 10:58:34;;;;;;;4.78;2.67;;;31.30;90.20;;;;;;5010959;28;20052;-62
2023/06/25 11:01:01;;;;;;;6.55;2.70;;;31.10;90.00;;;;;;5050494;28;20456;-62
2023/06/25 11:03:34;;;;;;;5.72;2.80;;;30.90;90.00;;;;;;5063243;28;20062;-62
2023/06/25 11:06:01;;;;;;;3.80;2.95;;;30.60;87.10;;;;;;5061924;28;20047;-61
2023/06/25 11:08:28;;;;;;;3.25;2.70;;;30.40;88.90;;;;;;5064440;28;20048;-61
2023/06/25 11:10:57;;;;;;;5.88;2.50;;;30.20;87.90;;;;;;5064248;28;20092;-62
2023/06/25 11:13:24;;;;;;;3.75;3.25;;;30.10;87.50;;;;;;5054219;28;20044;-61
2023/06/25 11:15:51;;;;;;;4.63;3.22;;;30.00;87.80;;;;;;5068377;28;20053;-62
2023/06/25 11:18:21;;;;;;;8.70;2.83;;;29.80;88.20;;;;;;5062890;28;20052;-62
2023/06/25 11:20:47;;;;;;;6.75;2.55;;;29.80;87.40;;;;;;5065001;28;20045;-61
2023/06/25 11:23:14;;;;;;;3.92;3.05;;;29.70;86.00;;;;;;5049966;28;20052;-62
2023/06/25 11:25:41;;;;;;;10.35;2.38;;;29.70;86.10;;;;;;5088462;28;20087;-61
2023/06/25 11:28:13;;;;;;;3.40;2.75;;;29.70;85.80;;;;;;5065966;28;20059;-61
2023/06/25 11:30:43;;;;;;;8.55;3.05;;;29.80;86.20;;;;;;5061735;28;20049;-61
2023/06/25 11:33:11;;;;;;;4.30;2.97;;;29.70;84.50;;;;;;5045107;28;20048;-60
2023/06/25 11:35:38;;;;;;;7.15;3.25;;;29.70;85.20;;;;;;5067893;28;20132;-61
2023/06/25 11:38:05;;;;;;;7.55;2.97;;;29.60;86.20;;;;;;5067238;28;20052;-60
2023/06/25 11:40:34;;;;;;;5.50;2.47;;;29.60;87.00;;;;;;5051813;28;20049;-60
2023/06/25 11:43:01;;;;;;;9.35;3.10;;;29.70;86.10;;;;;;5055597;28;20071;-61
2023/06/25 11:45:42;;;;;;;8.23;2.90;;;29.70;85.60;;;;;;5070434;28;20102;-61
2023/06/25 11:48:13;;;;;;;4.57;2.70;;;29.70;85.60;;;;;;5050086;28;20093;-61
2023/06/25 11:50:40;;;;;;;7.22;3.35;;;29.70;85.70;;;;;;5067882;28;20052;-60
2023/06/25 11:53:07;;;;;;;5.65;3.42;;;29.80;85.90;;;;;;5052056;28;20097;-61
2023/06/25 11:55:34;;;;;;;4.50;3.30;;;29.80;85.80;;;;;;5062912;28;20051;-61
2023/06/25 11:58:02;;;;;;;6.60;3.40;;;29.70;85.20;;;;;;5069177;28;20090;-61
2023/06/25 12:00:28;;;;;;;3.55;2.53;;;29.70;85.30;;;;;;5074006;28;20045;-60
2023/06/25 12:02:55;;;;;;;4.80;2.88;;;29.60;84.00;;;;;;5067385;28;20487;-60
2023/06/25 12:05:22;;;;;;;4.13;2.63;;;29.60;84.00;;;;;;5067517;28;20080;-60
2023/06/25 12:07:49;;;;;;;4.93;2.45;;;29.70;84.30;;;;;;5066618;28;20051;-58
2023/06/25 12:10:16;;;;;;;3.42;2.63;;;29.70;83.70;;;;;;5066980;28;20362;-60
2023/06/25 12:12:44;;;;;;;2.85;2.33;;;29.60;83.40;;;;;;5064075;28;20052;-59
2023/06/25 12:15:11;;;;;;;6.00;3.30;;;29.60;82.70;;;;;;5063716;28;20052;-60
2023/06/25 12:17:38;;;;;;;4.03;2.88;;;29.70;83.20;;;;;;5045906;28;20045;-60
2023/06/25 12:20:06;;;;;;;4.50;3.08;;;29.70;82.80;;;;;;5070646;28;20055;-59
2023/06/25 12:22:32;;;;;;;4.38;2.88;;;29.70;83.20;;;;;;5067938;28;20087;-61
2023/06/25 12:24:59;;;;;;;15.65;5.60;;;29.70;83.00;;;;;;5068404;28;20661;-61
2023/06/25 12:27:26;;;;;;;4.55;2.63;;;29.90;82.90;;;;;;5068247;28;20449;-61
2023/06/25 12:29:53;;;;;;;6.07;3.47;;;29.90;83.10;;;;;;5069761;28;20047;-61
2023/06/25 12:32:20;;;;;;;8.52;4.18;;;30.00;82.00;;;;;;5067302;28;20047;-61
2023/06/25 12:34:47;;;;;;;3.20;2.53;;;30.10;81.30;;;;;;5050153;28;20063;-61
2023/06/25 12:37:14;;;;;;;4.95;2.50;;;30.20;81.40;;;;;;5067980;28;20053;-61
2023/06/25 12:39:40;;;;;;;8.68;3.28;;;30.20;81.40;;;;;;5068334;28;20109;-61
2023/06/25 12:42:07;;;;;;;4.75;3.15;;;30.20;81.00;;;;;;5067781;28;20056;-60
2023/06/25 12:44:34;;;;;;;10.25;3.00;;;30.10;80.20;;;;;;5068787;28;20045;-60
2023/06/25 12:47:01;;;;;;;6.43;2.90;;;30.10;80.40;;;;;;5056062;28;20041;-61
2023/06/25 12:49:28;;;;;;;6.10;2.63;;;30.10;80.40;;;;;;5060959;28;20049;-60